Time;durP1;ratioP1;P1;durP2;ratioP2;P2;SDS_P1;SDS_P2;PMS_P1;PMS_P2;Temp;Humidity;BMP_temperature;BMP_pressure;BME280_temperature;BME280_humidity;BME280_pressure;Samples;Min_cycle;Max_cycle;Signal;HPM_P1;HPM_P2
2023/06/11 00:01:19;;;;;;;6.00;4.32;;;;;;;21.24;79.95;101553.16;6200225;28;20050;-79
2023/06/11 00:04:24;;;;;;;6.75;4.78;;;;;;;21.16;80.07;101548.47;6195039;28;20364;-78
2023/06/11 00:07:27;;;;;;;7.43;4.72;;;;;;;21.18;80.53;101554.53;6188128;28;20049;-79
2023/06/11 00:10:30;;;;;;;7.45;4.78;;;;;;;21.15;80.21;101557.47;6181849;28;20058;-79
2023/06/11 00:13:31;;;;;;;6.28;4.00;;;;;;;21.13;80.12;101561.25;6191786;28;20363;-79
2023/06/11 00:16:33;;;;;;;7.95;4.70;;;;;;;21.11;79.67;101555.19;6205339;28;20053;-79
2023/06/11 00:19:35;;;;;;;9.35;5.20;;;;;;;21.03;78.90;101561.19;6204509;28;20117;-75
2023/06/11 00:22:37;;;;;;;8.68;4.50;;;;;;;20.94;78.05;101554.81;6205442;28;20050;-75
2023/06/11 00:25:39;;;;;;;10.35;4.20;;;;;;;20.95;77.97;101553.81;6204762;28;20050;-75
2023/06/11 00:28:41;;;;;;;7.47;4.43;;;;;;;20.94;77.76;101551.28;6204982;28;20039;-75
2023/06/11 00:31:42;;;;;;;8.35;4.97;;;;;;;20.93;77.33;101547.75;6194979;28;20367;-75
2023/06/11 00:34:44;;;;;;;5.78;3.85;;;;;;;20.91;76.51;101551.53;6204920;28;20059;-75
2023/06/11 00:37:47;;;;;;;6.10;4.00;;;;;;;20.94;76.72;101553.97;6204780;28;20050;-75
2023/06/11 00:40:49;;;;;;;9.73;4.18;;;;;;;20.88;75.52;101555.28;6204397;28;20065;-75
2023/06/11 00:43:52;;;;;;;7.15;4.13;;;;;;;20.92;75.77;101558.56;6204677;28;20042;-75
2023/06/11 00:46:54;;;;;;;5.97;4.05;;;;;;;20.92;75.64;101563.91;6204682;28;20371;-75
2023/06/11 00:49:56;;;;;;;6.03;3.80;;;;;;;20.72;75.50;101561.09;6182698;28;20360;-75
2023/06/11 00:52:58;;;;;;;7.75;3.97;;;;;;;20.78;75.20;101565.06;6179797;28;20364;-75
2023/06/11 00:56:00;;;;;;;7.85;3.83;;;;;;;20.74;75.30;101564.47;6201845;28;20053;-75
2023/06/11 00:59:02;;;;;;;6.93;3.95;;;;;;;20.72;74.78;101558.41;6204128;28;20054;-76
2023/06/11 01:02:10;;;;;;;8.63;4.05;;;;;;;20.76;74.25;101562.53;6202174;28;20564;-75
2023/06/11 01:05:17;;;;;;;6.75;3.80;;;;;;;20.71;73.98;101561.19;6202536;28;20586;-76
2023/06/11 01:08:19;;;;;;;6.70;3.90;;;;;;;20.60;73.27;101561.25;6195924;28;20050;-75
2023/06/11 01:11:22;;;;;;;6.90;3.28;;;;;;;20.61;73.03;101563.78;6195386;28;20057;-75
2023/06/11 01:14:24;;;;;;;7.93;3.45;;;;;;;20.60;72.47;101553.25;6196768;28;20050;-75
2023/06/11 01:17:30;;;;;;;4.60;3.10;;;;;;;20.50;72.35;101572.69;6195722;28;20448;-75
2023/06/11 01:20:37;;;;;;;5.82;3.40;;;;;;;20.34;71.34;101569.53;6195303;28;20082;-75
2023/06/11 01:23:41;;;;;;;4.00;3.20;;;;;;;20.38;71.83;101571.00;6203695;28;20371;-75
2023/06/11 01:26:55;;;;;;;5.00;2.92;;;;;;;20.28;71.52;101567.38;6203487;28;20133;-75
2023/06/11 01:30:00;;;;;;;4.88;3.20;;;;;;;20.30;71.85;101570.75;6202951;28;20069;-76
2023/06/11 01:33:02;;;;;;;5.22;3.15;;;;;;;20.26;70.76;101569.34;6202129;28;20043;-75
2023/06/11 01:36:05;;;;;;;9.15;2.97;;;;;;;20.20;71.09;101577.81;6203311;28;20109;-75
2023/06/11 01:39:06;;;;;;;6.07;2.88;;;;;;;20.09;70.94;101580.53;6181075;28;20443;-75
2023/06/11 01:42:08;;;;;;;7.53;3.00;;;;;;;20.04;71.11;101578.22;6178669;28;20059;-75
2023/06/11 01:45:11;;;;;;;4.63;2.67;;;;;;;20.01;71.93;101579.31;6179359;28;20050;-75
2023/06/11 01:48:13;;;;;;;7.75;3.20;;;;;;;19.88;71.32;101583.06;6202403;28;20046;-75
2023/06/11 01:51:14;;;;;;;5.60;3.05;;;;;;;19.71;71.37;101587.94;6179186;28;20047;-75
2023/06/11 01:54:15;;;;;;;6.40;3.17;;;;;;;19.69;71.63;101587.19;6179210;28;20137;-75
2023/06/11 01:57:17;;;;;;;6.97;3.08;;;;;;;19.60;71.54;101590.56;6178920;28;20054;-75
2023/06/11 02:00:19;;;;;;;5.00;3.10;;;;;;;19.60;71.23;101589.69;6178252;28;20332;-75
2023/06/11 02:03:21;;;;;;;4.28;2.95;;;;;;;19.59;71.67;101591.53;6200359;28;20057;-75
2023/06/11 02:06:23;;;;;;;7.40;3.08;;;;;;;19.56;71.75;101591.75;6202768;28;20057;-75
2023/06/11 02:09:24;;;;;;;4.88;2.63;;;;;;;19.55;71.99;101594.53;6202719;28;20050;-75
2023/06/11 02:12:26;;;;;;;4.47;2.83;;;;;;;19.53;71.78;101586.66;6202393;28;20057;-76
2023/06/11 02:15:28;;;;;;;6.07;3.35;;;;;;;19.50;71.84;101592.22;6193299;28;20061;-75
2023/06/11 02:18:30;;;;;;;8.35;2.80;;;;;;;19.50;70.71;101585.06;6178635;28;20054;-75
2023/06/11 02:21:31;;;;;;;2.30;1.92;;;;;;;19.39;71.05;101586.88;6177871;28;20046;-75
2023/06/11 02:24:32;;;;;;;5.63;2.70;;;;;;;19.24;71.55;101581.75;6178707;28;20055;-75
2023/06/11 02:27:34;;;;;;;5.40;2.80;;;;;;;19.24;72.04;101586.22;6178178;28;20057;-75
2023/06/11 02:30:37;;;;;;;5.03;2.75;;;;;;;19.20;71.77;101585.63;6177601;28;20065;-75
2023/06/11 02:33:38;;;;;;;6.22;2.63;;;;;;;19.19;71.90;101586.59;6191478;28;20058;-76
2023/06/11 02:36:40;;;;;;;3.33;2.40;;;;;;;19.23;71.76;101588.06;6196866;28;20049;-75
2023/06/11 02:39:41;;;;;;;4.75;2.72;;;;;;;19.16;71.65;101585.97;6201744;28;20049;-75
2023/06/11 02:42:43;;;;;;;4.75;2.85;;;;;;;19.05;72.16;101591.28;6198075;28;20054;-75
2023/06/11 02:45:45;;;;;;;7.63;3.08;;;;;;;18.97;72.77;101584.69;6190545;28;20371;-75
2023/06/11 02:48:47;;;;;;;6.97;2.35;;;;;;;18.95;73.05;101588.47;6177975;28;20057;-75
2023/06/11 02:51:48;;;;;;;5.10;2.13;;;;;;;18.89;72.87;101591.56;6188583;28;20251;-75
2023/06/11 02:54:50;;;;;;;4.32;2.40;;;;;;;18.86;72.68;101589.16;6193868;28;20061;-75
2023/06/11 02:57:51;;;;;;;5.78;2.47;;;;;;;18.80;72.93;101589.59;6201972;28;20042;-75
2023/06/11 03:00:54;;;;;;;4.40;2.40;;;;;;;18.72;73.00;101585.69;6196569;28;20050;-75
2023/06/11 03:03:55;;;;;;;3.97;2.53;;;;;;;18.67;73.20;101579.84;6196709;28;20054;-75
2023/06/11 03:06:57;;;;;;;3.90;2.75;;;;;;;18.57;73.24;101585.94;6201087;28;20079;-76
2023/06/11 03:09:58;;;;;;;4.00;2.40;;;;;;;18.52;74.16;101588.94;6188073;28;20057;-75
2023/06/11 03:12:59;;;;;;;3.17;2.15;;;;;;;18.50;73.79;101590.88;6199298;28;20046;-75
2023/06/11 03:16:02;;;;;;;3.17;2.28;;;;;;;18.46;74.06;101594.72;6201786;28;20046;-75
2023/06/11 03:19:04;;;;;;;5.15;2.40;;;;;;;18.43;74.39;101594.94;6201593;28;20046;-75
2023/06/11 03:22:05;;;;;;;4.60;2.60;;;;;;;18.39;74.48;101588.97;6201283;28;20181;-75
2023/06/11 03:25:07;;;;;;;5.57;2.42;;;;;;;18.39;74.50;101593.44;6201629;28;20050;-75
2023/06/11 03:28:08;;;;;;;4.10;2.72;;;;;;;18.27;74.58;101584.56;6200591;28;20046;-75
2023/06/11 03:31:11;;;;;;;4.05;2.22;;;;;;;18.28;74.18;101588.91;6193137;28;20057;-75
2023/06/11 03:34:12;;;;;;;4.30;2.72;;;;;;;18.20;74.67;101585.94;6199945;28;20073;-75
2023/06/11 03:37:13;;;;;;;4.53;2.75;;;;;;;18.11;75.03;101591.94;6197217;28;20043;-75
2023/06/11 03:40:15;;;;;;;4.88;2.47;;;;;;;18.10;75.39;101593.75;6176249;28;20058;-75
2023/06/11 03:43:17;;;;;;;4.00;2.30;;;;;;;18.08;75.65;101594.84;6177528;28;20057;-75
2023/06/11 03:46:22;;;;;;;3.30;2.25;;;;;;;18.04;75.62;101586.22;6182206;28;20085;-75
2023/06/11 03:49:24;;;;;;;3.30;2.42;;;;;;;18.01;75.00;101591.75;6190897;28;20058;-75
2023/06/11 03:52:25;;;;;;;4.22;2.50;;;;;;;18.00;75.49;101592.72;6192725;28;20422;-75
2023/06/11 03:55:27;;;;;;;2.65;1.95;;;;;;;18.02;75.09;101598.75;6194480;28;20046;-75
2023/06/11 03:58:28;;;;;;;3.63;2.22;;;;;;;18.02;75.04;101598.75;6185856;28;20050;-79
2023/06/11 04:01:31;;;;;;;4.18;2.33;;;;;;;18.03;74.70;101599.59;6182089;28;20707;-79
2023/06/11 04:04:33;;;;;;;3.72;2.28;;;;;;;17.99;75.13;101601.66;6181439;28;20047;-76
2023/06/11 04:07:35;;;;;;;5.45;2.50;;;;;;;17.95;75.34;101601.00;6188530;28;20161;-76
2023/06/11 04:10:37;;;;;;;7.85;2.17;;;;;;;17.95;75.14;101610.81;6193154;28;20379;-75
2023/06/11 04:13:38;;;;;;;4.50;1.50;;;;;;;17.95;75.15;101609.00;6189488;28;20205;-79
2023/06/11 04:16:41;;;;;;;5.60;2.22;;;;;;;17.96;75.44;101613.34;6187634;28;20111;-75
2023/06/11 04:19:42;;;;;;;3.00;2.03;;;;;;;17.93;74.57;101608.22;6188186;28;20065;-76
2023/06/11 04:22:44;;;;;;;3.03;1.98;;;;;;;17.89;73.96;101612.06;6187867;28;20054;-76
2023/06/11 04:25:48;;;;;;;2.58;1.85;;;;;;;17.94;74.17;101609.06;6186224;28;20604;-77
2023/06/11 04:28:50;;;;;;;9.73;2.13;;;;;;;17.93;74.57;101607.38;6190323;28;20133;-77
2023/06/11 04:31:53;;;;;;;5.85;1.92;;;;;;;17.82;72.85;101602.84;6198118;28;20054;-77
2023/06/11 04:34:56;;;;;;;4.70;2.13;;;;;;;17.70;71.73;101598.34;6189884;28;20054;-77
2023/06/11 04:37:58;;;;;;;3.08;1.75;;;;;;;17.80;72.36;101598.56;6188713;28;20047;-76
2023/06/11 04:41:00;;;;;;;3.90;2.30;;;;;;;17.80;72.73;101596.75;6185678;28;20050;-77
2023/06/11 04:44:02;;;;;;;3.33;2.03;;;;;;;17.76;72.36;101595.31;6194793;28;20355;-77
2023/06/11 04:47:05;;;;;;;5.05;2.20;;;;;;;17.69;72.89;101596.63;6204528;28;20151;-76
2023/06/11 04:50:07;;;;;;;3.25;2.22;;;;;;;17.68;71.81;101587.81;6193660;28;20051;-77
2023/06/11 04:53:12;;;;;;;5.18;1.83;;;;;;;17.70;72.09;101599.19;6201800;28;20073;-77
2023/06/11 04:56:14;;;;;;;3.47;1.92;;;;;;;17.84;72.40;101598.25;6196268;28;20481;-77
2023/06/11 04:59:15;;;;;;;2.35;1.70;;;;;;;17.88;72.82;101601.53;6194241;28;20351;-78
2023/06/11 05:02:18;;;;;;;7.07;1.83;;;;;;;17.83;72.63;101601.03;6195228;28;20057;-78
2023/06/11 05:05:19;;;;;;;7.15;1.98;;;;;;;17.90;73.25;101608.47;6194460;28;20089;-78
2023/06/11 05:08:24;;;;;;;8.07;2.00;;;;;;;17.94;73.71;101609.06;6200389;28;20043;-78
2023/06/11 05:11:26;;;;;;;6.63;2.08;;;;;;;18.03;73.24;101613.75;6195620;28;20447;-77
2023/06/11 05:14:27;;;;;;;3.92;2.20;;;;;;;17.96;73.47;101601.88;6204254;28;20054;-77
2023/06/11 05:17:29;;;;;;;3.42;1.85;;;;;;;18.00;73.12;101608.66;6204240;28;20058;-77
2023/06/11 05:20:31;;;;;;;4.22;2.80;;;;;;;17.96;74.01;101601.88;6203448;28;20051;-77
2023/06/11 05:23:33;;;;;;;3.97;2.00;;;;;;;17.95;73.79;101600.16;6204056;28;20351;-78
2023/06/11 05:26:35;;;;;;;6.30;1.63;;;;;;;17.98;74.19;101607.91;6203773;28;20148;-77
2023/06/11 05:29:37;;;;;;;3.53;2.00;;;;;;;17.96;72.88;101612.50;6199970;28;20053;-77
2023/06/11 05:32:40;;;;;;;3.53;1.95;;;;;;;18.00;73.75;101611.31;6202245;28;20466;-77
2023/06/11 05:35:43;;;;;;;4.03;1.95;;;;;;;18.06;74.34;101610.03;6203957;28;20054;-77
2023/06/11 05:38:44;;;;;;;4.70;2.20;;;;;;;18.08;75.24;101608.13;6203513;28;20347;-77
2023/06/11 05:41:46;;;;;;;4.15;2.15;;;;;;;18.08;72.83;101608.13;6203253;28;20050;-77
2023/06/11 05:44:47;;;;;;;7.32;2.63;;;;;;;18.17;75.25;101608.31;6203636;28;20054;-77
2023/06/11 05:47:50;;;;;;;3.53;1.67;;;;;;;18.18;73.73;101603.84;6203241;28;20042;-77
2023/06/11 05:50:51;;;;;;;3.88;2.00;;;;;;;18.27;74.37;101607.66;6203104;28;20061;-77
2023/06/11 05:53:52;;;;;;;3.38;1.60;;;;;;;18.30;75.43;101610.94;6203274;28;20128;-77
2023/06/11 05:56:54;;;;;;;6.15;2.55;;;;;;;18.30;77.45;101615.41;6203149;28;20050;-77
2023/06/11 05:59:55;;;;;;;3.30;2.13;;;;;;;18.33;77.26;101610.72;6202574;28;20062;-77
2023/06/11 06:02:58;;;;;;;5.65;2.40;;;;;;;18.34;76.72;101609.75;6196461;28;20058;-77
2023/06/11 06:06:01;;;;;;;4.38;2.38;;;;;;;18.39;76.78;101612.06;6178794;28;20057;-77
2023/06/11 06:09:04;;;;;;;4.95;1.92;;;;;;;18.44;77.46;101610.81;6178979;28;20051;-77
2023/06/11 06:12:06;;;;;;;2.92;2.10;;;;;;;18.50;77.75;101620.16;6178394;28;20057;-78
2023/06/11 06:15:08;;;;;;;4.65;2.28;;;;;;;18.59;78.23;101623.97;6178927;28;20055;-78
2023/06/11 06:18:11;;;;;;;4.60;2.28;;;;;;;18.60;76.01;101626.50;6182628;28;20047;-78
2023/06/11 06:21:12;;;;;;;3.85;2.30;;;;;;;18.66;75.81;101625.19;6194149;28;20359;-77
2023/06/11 06:24:14;;;;;;;4.72;2.47;;;;;;;18.69;76.27;101628.50;6194160;28;20057;-77
2023/06/11 06:27:15;;;;;;;5.47;2.70;;;;;;;18.72;77.22;101630.13;6195990;28;20054;-77
2023/06/11 06:30:17;;;;;;;5.05;2.40;;;;;;;18.78;77.49;101620.81;6184880;28;20065;-78
2023/06/11 06:33:19;;;;;;;5.10;2.38;;;;;;;18.80;78.99;101629.53;6179384;28;20352;-77
2023/06/11 06:36:21;;;;;;;5.07;3.00;;;;;;;18.77;78.38;101625.28;6178188;28;20050;-78
2023/06/11 06:39:22;;;;;;;6.22;3.55;;;;;;;18.82;76.74;101628.47;6178604;28;20046;-78
2023/06/11 06:42:23;;;;;;;6.60;2.95;;;;;;;18.89;78.06;101634.19;6177875;28;20062;-78
2023/06/11 06:45:25;;;;;;;5.18;2.55;;;;;;;18.91;78.99;101624.28;6178391;28;20057;-77
2023/06/11 06:48:27;;;;;;;4.68;2.88;;;;;;;18.93;77.14;101631.16;6178162;28;20053;-77
2023/06/11 06:51:30;;;;;;;5.38;2.67;;;;;;;19.01;76.82;101634.13;6177062;28;20054;-77
2023/06/11 06:54:31;;;;;;;4.00;2.70;;;;;;;19.08;78.02;101628.34;6185572;28;20068;-77
2023/06/11 06:57:32;;;;;;;9.93;2.90;;;;;;;19.13;77.87;101629.69;6194772;28;20053;-76
2023/06/11 07:00:34;;;;;;;5.53;2.50;;;;;;;19.13;78.50;101635.03;6195842;28;20054;-78
2023/06/11 07:03:36;;;;;;;5.30;2.60;;;;;;;19.17;76.79;101633.84;6200035;28;20057;-76
2023/06/11 07:06:38;;;;;;;5.80;3.13;;;;;;;19.21;77.69;101637.09;6197116;28;20050;-81
2023/06/11 07:09:39;;;;;;;8.93;3.15;;;;;;;19.26;78.10;101630.47;6195812;28;20053;-77
2023/06/11 07:12:41;;;;;;;4.05;2.80;;;;;;;19.33;76.67;101628.19;6199357;28;20189;-78
2023/06/11 07:15:42;;;;;;;5.40;3.05;;;;;;;19.43;77.05;101623.84;6200457;28;20358;-79
2023/06/11 07:18:45;;;;;;;4.32;2.97;;;;;;;19.49;77.16;101631.38;6193707;28;20053;-79
2023/06/11 07:21:46;;;;;;;5.35;2.72;;;;;;;19.55;76.25;101639.88;6201099;28;20050;-79
2023/06/11 07:24:48;;;;;;;8.00;3.53;;;;;;;19.58;75.92;101637.81;6201950;28;20463;-79
2023/06/11 07:27:50;;;;;;;5.50;2.97;;;;;;;19.66;73.57;101632.75;6201699;28;20047;-79
2023/06/11 07:30:51;;;;;;;4.93;2.85;;;;;;;19.77;73.85;101637.28;6201134;28;20062;-79
2023/06/11 07:33:54;;;;;;;4.53;2.95;;;;;;;19.87;73.66;101638.25;6199989;28;20050;-79
2023/06/11 07:36:55;;;;;;;5.30;3.38;;;;;;;19.93;71.99;101634.25;6201452;28;20046;-79
2023/06/11 07:39:56;;;;;;;5.20;3.75;;;;;;;20.01;72.86;101632.66;6200890;28;20046;-79
2023/06/11 07:42:58;;;;;;;5.15;3.13;;;;;;;20.06;73.29;101640.31;6201600;28;20058;-79
2023/06/11 07:45:59;;;;;;;8.73;3.47;;;;;;;20.14;70.99;101629.03;6201325;28;20362;-79
2023/06/11 07:49:03;;;;;;;4.85;2.80;;;;;;;20.18;72.44;101631.34;6201577;28;20042;-79
2023/06/11 07:52:05;;;;;;;5.75;3.28;;;;;;;20.17;72.74;101634.97;6200687;28;20144;-79
2023/06/11 07:55:07;;;;;;;4.45;2.90;;;;;;;20.22;71.97;101627.47;6201475;28;20129;-79
2023/06/11 07:58:09;;;;;;;6.50;3.35;;;;;;;20.28;71.25;101637.63;6201467;28;20046;-79
2023/06/11 08:01:10;;;;;;;7.97;4.25;;;;;;;20.35;71.90;101643.34;6200680;28;20446;-79
2023/06/11 08:04:13;;;;;;;7.95;3.00;;;;;;;20.43;71.01;101637.38;6204227;28;20058;-80
2023/06/11 08:07:15;;;;;;;9.50;3.65;;;;;;;20.44;72.00;101631.06;6205803;28;20053;-79
2023/06/11 08:10:16;;;;;;;6.22;3.70;;;;;;;20.58;70.73;101630.84;6205322;28;20050;-79
2023/06/11 08:13:18;;;;;;;4.38;2.95;;;;;;;20.63;70.44;101627.78;6205707;28;20046;-79
2023/06/11 08:16:19;;;;;;;7.15;3.05;;;;;;;20.63;72.66;101627.78;6205808;28;20050;-80
2023/06/11 08:19:22;;;;;;;6.70;3.25;;;;;;;20.78;69.66;101640.72;6205649;28;20189;-80
2023/06/11 08:22:24;;;;;;;5.45;3.10;;;;;;;20.81;71.45;101628.94;6205142;28;20050;-79
2023/06/11 08:25:25;;;;;;;7.45;3.53;;;;;;;20.81;71.28;101625.44;6205307;28;20058;-79
2023/06/11 08:28:26;;;;;;;5.50;3.25;;;;;;;20.86;72.22;101625.91;6205530;28;20047;-79
2023/06/11 08:31:28;;;;;;;6.20;3.15;;;;;;;20.89;71.92;101625.63;6205008;28;20137;-79
2023/06/11 08:34:31;;;;;;;6.20;3.20;;;;;;;20.98;70.65;101619.50;6192461;28;20050;-80
2023/06/11 08:37:32;;;;;;;14.52;3.47;;;;;;;21.08;71.35;101628.47;6181107;28;20376;-79
2023/06/11 08:40:40;;;;;;;6.05;2.95;;;;;;;21.18;67.99;101625.88;6180509;28;20054;-80
2023/06/11 08:43:41;;;;;;;4.78;2.92;;;;;;;21.29;65.20;101623.97;6181034;28;20046;-79
2023/06/11 08:46:45;;;;;;;5.63;3.17;;;;;;;21.41;66.56;101629.31;6180721;28;20054;-80
2023/06/11 08:49:48;;;;;;;5.22;3.20;;;;;;;21.52;66.10;101627.41;6180247;28;20047;-79
2023/06/11 08:52:51;;;;;;;4.50;3.00;;;;;;;21.58;66.79;101626.03;6180766;28;20061;-79
2023/06/11 08:55:53;;;;;;;4.78;3.38;;;;;;;21.66;63.94;101628.03;6180672;28;20142;-79
2023/06/11 08:58:56;;;;;;;4.90;3.20;;;;;;;21.68;65.59;101624.25;6180535;28;20043;-79
2023/06/11 09:01:58;;;;;;;5.63;2.97;;;;;;;21.75;65.08;101622.72;6180118;28;20133;-79
2023/06/11 09:05:00;;;;;;;3.72;2.78;;;;;;;21.88;65.16;101625.19;6181615;28;20051;-79
2023/06/11 09:08:06;;;;;;;4.72;3.65;;;;;;;22.09;62.35;101617.13;6180232;28;20047;-79
2023/06/11 09:11:08;;;;;;;6.68;3.28;;;;;;;22.13;64.96;101623.09;6179629;28;20046;-80
2023/06/11 09:14:09;;;;;;;7.32;2.67;;;;;;;22.22;64.29;101625.81;6179741;28;20058;-79
2023/06/11 09:17:15;;;;;;;9.85;3.15;;;;;;;22.31;63.89;101620.63;6180412;28;20053;-79
2023/06/11 09:20:20;;;;;;;4.43;3.08;;;;;;;22.28;64.00;101624.41;6179402;28;20062;-80
2023/06/11 09:23:28;;;;;;;5.57;3.00;;;;;;;22.43;62.37;101624.84;6180051;28;20073;-79
2023/06/11 09:26:30;;;;;;;4.65;2.65;;;;;;;22.57;61.62;101624.47;6179925;28;20452;-80
2023/06/11 09:29:31;;;;;;;4.60;2.95;;;;;;;22.59;62.91;101613.63;6179865;28;20046;-79
2023/06/11 09:32:38;;;;;;;5.78;3.35;;;;;;;22.56;61.82;101612.06;6179856;28;20058;-80
2023/06/11 09:35:44;;;;;;;8.02;3.30;;;;;;;22.65;60.58;101621.94;6180858;28;20078;-79
2023/06/11 09:38:48;;;;;;;5.60;2.88;;;;;;;22.73;61.05;101615.91;6179952;28;20575;-79
2023/06/11 09:41:50;;;;;;;5.97;2.70;;;;;;;22.80;59.72;101622.41;6179341;28;20110;-80
2023/06/11 09:44:51;;;;;;;4.90;2.45;;;;;;;22.84;60.25;101617.59;6179564;28;20043;-80
2023/06/11 09:47:53;;;;;;;3.47;2.80;;;;;;;22.93;56.89;101622.13;6179511;28;20058;-79
2023/06/11 09:50:56;;;;;;;4.75;2.75;;;;;;;23.17;53.99;101619.03;6178771;28;20062;-79
2023/06/11 09:53:58;;;;;;;10.18;3.47;;;;;;;23.26;52.97;101613.66;6179371;28;20337;-80
2023/06/11 09:57:00;;;;;;;4.05;2.97;;;;;;;23.24;52.84;101614.78;6179181;28;20047;-80
2023/06/11 10:00:03;;;;;;;4.82;3.00;;;;;;;23.21;54.28;101612.38;6178815;28;20047;-80
2023/06/11 10:03:05;;;;;;;3.53;2.78;;;;;;;23.50;52.73;101617.72;6179233;28;20063;-80
2023/06/11 10:06:26;;;;;;;5.28;3.45;;;;;;;23.61;53.70;101622.06;6180029;28;20054;-80
2023/06/11 10:09:31;;;;;;;3.88;2.80;;;;;;;23.69;53.02;101617.69;6178641;28;20054;-80
2023/06/11 10:12:33;;;;;;;5.18;2.63;;;;;;;23.82;52.14;101621.91;6179117;28;20058;-79
2023/06/11 10:15:37;;;;;;;5.57;2.88;;;;;;;24.19;47.64;101621.88;6179132;28;20058;-80
2023/06/11 10:18:38;;;;;;;4.38;2.75;;;;;;;24.31;46.98;101615.31;6178950;28;20054;-79
2023/06/11 10:21:44;;;;;;;3.85;2.35;;;;;;;24.52;46.96;101618.59;6178152;28;20463;-79
2023/06/11 10:24:58;;;;;;;5.13;2.95;;;;;;;24.61;45.92;101606.06;6177882;28;20125;-76
2023/06/11 10:27:59;;;;;;;4.28;2.38;;;;;;;24.81;45.02;101609.47;6178590;28;20058;-78
2023/06/11 10:31:02;;;;;;;3.38;2.30;;;;;;;24.70;45.50;101597.09;6177961;28;20042;-78
2023/06/11 10:34:04;;;;;;;4.57;2.70;;;;;;;24.78;43.88;101605.25;6187536;28;20455;-77
2023/06/11 10:37:08;;;;;;;3.90;2.70;;;;;;;24.85;44.98;101608.19;6202588;28;20165;-77
2023/06/11 10:40:10;;;;;;;3.92;1.98;;;;;;;25.03;43.89;101598.25;6201963;28;20042;-79
2023/06/11 10:43:16;;;;;;;4.10;2.17;;;;;;;25.09;43.60;101596.81;6202394;28;20057;-78
2023/06/11 10:46:19;;;;;;;7.18;2.90;;;;;;;25.03;44.67;101602.78;6202685;28;20050;-78
2023/06/11 10:49:22;;;;;;;5.30;2.65;;;;;;;25.13;43.99;101603.56;6202369;28;20057;-78
2023/06/11 10:52:26;;;;;;;3.47;2.30;;;;;;;25.51;41.70;101605.00;6201686;28;20050;-78
2023/06/11 10:55:29;;;;;;;11.35;2.08;;;;;;;25.45;41.66;101594.88;6202388;28;20455;-78
2023/06/11 10:58:31;;;;;;;3.38;2.38;;;;;;;25.53;41.88;101603.03;6202012;28;20050;-79
2023/06/11 11:01:33;;;;;;;4.72;2.03;;;;;;;25.72;40.18;101595.72;6201584;28;20053;-78
2023/06/11 11:04:34;;;;;;;3.10;2.17;;;;;;;25.96;41.29;101597.72;6200647;28;20054;-78
2023/06/11 11:07:37;;;;;;;5.93;2.63;;;;;;;25.85;41.62;101598.03;6201983;28;20050;-78
2023/06/11 11:10:38;;;;;;;3.60;2.08;;;;;;;26.03;39.95;101596.09;6201131;28;20046;-78
2023/06/11 11:13:40;;;;;;;5.13;1.95;;;;;;;26.14;38.26;101598.47;6201969;28;20047;-78
2023/06/11 11:16:41;;;;;;;3.00;1.88;;;;;;;26.23;39.19;101588.56;6201733;28;20054;-79
2023/06/11 11:19:44;;;;;;;5.00;2.30;;;;;;;26.21;38.97;101588.72;6201390;28;20050;-78
2023/06/11 11:22:53;;;;;;;4.30;2.33;;;;;;;26.39;37.70;101588.63;6201738;28;20185;-78
2023/06/11 11:25:55;;;;;;;3.55;2.47;;;;;;;26.70;35.54;101579.91;6201908;28;20100;-78
2023/06/11 11:28:57;;;;;;;3.17;1.95;;;;;;;26.83;36.01;101585.66;6201509;28;20336;-78
2023/06/11 11:31:58;;;;;;;4.75;1.95;;;;;;;27.07;35.68;101587.53;6201398;28;20423;-78
2023/06/11 11:35:00;;;;;;;2.70;1.75;;;;;;;26.98;36.63;101575.91;6201072;28;20042;-79
2023/06/11 11:38:03;;;;;;;3.30;1.67;;;;;;;27.10;38.02;101571.03;6206219;28;20051;-79
2023/06/11 11:41:08;;;;;;;3.95;2.03;;;;;;;27.31;34.07;101579.44;6206178;28;20476;-78
2023/06/11 11:44:09;;;;;;;4.72;2.40;;;;;;;27.56;34.90;101585.63;6206892;28;20136;-78
2023/06/11 11:47:11;;;;;;;3.83;2.08;;;;;;;27.64;36.46;101573.97;6206827;28;20046;-78
2023/06/11 11:50:22;;;;;;;3.30;2.35;;;;;;;27.62;35.19;101577.88;6205876;28;20050;-78
2023/06/11 11:53:29;;;;;;;3.00;2.15;;;;;;;27.75;34.64;101573.63;6206598;28;20127;-79
2023/06/11 11:56:33;;;;;;;4.20;1.70;;;;;;;27.83;36.21;101575.44;6206503;28;20061;-79
2023/06/11 11:59:38;;;;;;;2.50;1.92;;;;;;;28.10;34.86;101576.84;6205964;28;20137;-79
2023/06/11 12:02:43;;;;;;;3.15;2.13;;;;;;;28.18;33.84;101573.25;6206095;28;20150;-79
2023/06/11 12:05:56;;;;;;;2.42;1.75;;;;;;;28.23;34.28;101574.41;6191276;28;20581;-79
2023/06/11 12:08:58;;;;;;;3.00;1.95;;;;;;;28.38;33.07;101574.50;6206283;28;20058;-79
2023/06/11 12:12:00;;;;;;;3.42;2.30;;;;;;;28.60;31.85;101572.00;6205617;28;20050;-79
2023/06/11 12:15:01;;;;;;;3.67;1.95;;;;;;;28.69;30.65;101568.22;6206011;28;20522;-79
2023/06/11 12:18:03;;;;;;;3.55;2.22;;;;;;;28.78;32.12;101565.28;6206216;28;20057;-79
2023/06/11 12:21:05;;;;;;;2.42;2.00;;;;;;;28.96;31.04;101561.44;6205168;28;20050;-78
2023/06/11 12:24:09;;;;;;;4.53;2.10;;;;;;;28.98;31.54;101554.84;6205865;28;20046;-79
2023/06/11 12:27:11;;;;;;;3.83;2.25;;;;;;;28.96;30.94;101554.16;6205710;28;20086;-79
2023/06/11 12:30:12;;;;;;;3.90;2.00;;;;;;;29.17;30.75;101558.06;6205247;28;20042;-79
2023/06/11 12:33:15;;;;;;;3.00;2.00;;;;;;;29.27;31.43;101558.63;6198970;28;20069;-79
2023/06/11 12:36:16;;;;;;;3.80;2.05;;;;;;;29.42;29.60;101551.34;6181538;28;20061;-79
2023/06/11 12:39:20;;;;;;;3.60;2.00;;;;;;;29.63;30.34;101556.06;6181422;28;20050;-79
2023/06/11 12:42:21;;;;;;;5.38;1.77;;;;;;;29.76;30.58;101558.09;6180510;28;20141;-79
2023/06/11 12:45:23;;;;;;;6.47;2.08;;;;;;;29.70;31.02;101548.84;6181274;28;20051;-79
2023/06/11 12:48:24;;;;;;;4.93;2.15;;;;;;;29.66;30.30;101555.69;6180186;28;20051;-79
2023/06/11 12:51:25;;;;;;;3.28;1.95;;;;;;;29.85;29.48;101551.56;6180653;28;20051;-79
2023/06/11 12:54:28;;;;;;;2.85;2.17;;;;;;;29.87;30.46;101552.19;6181012;28;20043;-79
2023/06/11 12:57:29;;;;;;;3.03;2.17;;;;;;;29.81;28.58;101545.66;6181281;28;20061;-79
2023/06/11 13:00:31;;;;;;;3.72;2.20;;;;;;;29.78;30.32;101553.31;6180250;28;20370;-79
2023/06/11 13:03:32;;;;;;;2.65;2.00;;;;;;;29.96;30.60;101551.06;6190045;28;20077;-79
2023/06/11 13:06:34;;;;;;;3.38;2.20;;;;;;;30.18;28.64;101543.00;6204884;28;20431;-79
2023/06/11 13:09:37;;;;;;;3.30;2.33;;;;;;;30.38;29.54;101538.63;6204545;28;20046;-79
2023/06/11 13:12:38;;;;;;;2.83;2.08;;;;;;;30.58;28.47;101536.97;6204854;28;20051;-79
2023/06/11 13:15:43;;;;;;;3.72;2.25;;;;;;;30.73;27.60;101544.22;6204582;28;20347;-79
2023/06/11 13:18:45;;;;;;;5.22;2.28;;;;;;;30.63;28.54;101538.25;6204754;28;20054;-79
2023/06/11 13:21:46;;;;;;;5.28;2.10;;;;;;;30.58;30.45;101527.97;6203931;28;20130;-80
2023/06/11 13:24:49;;;;;;;3.05;2.05;;;;;;;30.67;29.71;101532.25;6204556;28;20050;-79
2023/06/11 13:27:50;;;;;;;2.75;2.00;;;;;;;30.82;28.39;101526.75;6204094;28;20054;-79
2023/06/11 13:30:53;;;;;;;4.53;2.22;;;;;;;31.04;27.98;101527.56;6204037;28;20053;-79
2023/06/11 13:33:54;;;;;;;4.50;2.28;;;;;;;31.16;26.49;101531.41;6202499;28;20340;-80
2023/06/11 13:36:56;;;;;;;3.15;2.15;;;;;;;31.22;28.53;101532.50;6204386;28;20066;-79
2023/06/11 13:39:59;;;;;;;5.63;2.30;;;;;;;31.10;26.36;101532.19;6203803;28;20133;-79
2023/06/11 13:43:00;;;;;;;3.45;2.08;;;;;;;31.12;26.70;101530.13;6204132;28;20050;-79
2023/06/11 13:46:02;;;;;;;3.38;2.00;;;;;;;31.18;26.78;101525.78;6204245;28;20474;-79
2023/06/11 13:49:03;;;;;;;6.03;2.30;;;;;;;31.10;25.82;101523.19;6203983;28;20046;-79
2023/06/11 13:52:05;;;;;;;3.60;2.13;;;;;;;31.17;26.69;101527.66;6203268;28;20050;-79
2023/06/11 13:55:09;;;;;;;3.22;2.10;;;;;;;31.33;26.75;101526.53;6203687;28;20057;-79
2023/06/11 13:58:12;;;;;;;4.38;2.42;;;;;;;31.29;26.97;101519.81;6203699;28;20050;-79
2023/06/11 14:01:13;;;;;;;2.80;2.00;;;;;;;31.35;28.28;101526.34;6202826;28;20133;-79
2023/06/11 14:04:15;;;;;;;4.30;2.20;;;;;;;31.21;27.61;101526.22;6202161;28;20050;-79
2023/06/11 14:07:16;;;;;;;7.03;2.38;;;;;;;31.06;27.89;101526.31;6203007;28;20431;-79